sensor_id;sensor_type;location;lat;lon;timestamp;P1;durP1;ratioP1;P2;durP2;ratioP2
34765;SDS011;20984;43.508;1.504;2023-05-01T00:00:00;11.75;;;7.63;;
34765;SDS011;20984;43.508;1.504;2023-05-01T00:02:28;10.23;;;7.95;;
34765;SDS011;20984;43.508;1.504;2023-05-01T00:04:54;13.52;;;8.75;;
34765;SDS011;20984;43.508;1.504;2023-05-01T00:07:21;9.90;;;7.80;;
34765;SDS011;20984;43.508;1.504;2023-05-01T00:09:46;15.30;;;8.05;;
34765;SDS011;20984;43.508;1.504;2023-05-01T00:12:12;14.05;;;7.60;;
34765;SDS011;20984;43.508;1.504;2023-05-01T00:14:38;8.45;;;6.82;;
34765;SDS011;20984;43.508;1.504;2023-05-01T00:17:03;11.30;;;7.97;;
34765;SDS011;20984;43.508;1.504;2023-05-01T00:19:30;11.18;;;8.40;;
34765;SDS011;20984;43.508;1.504;2023-05-01T00:21:56;10.98;;;8.93;;
34765;SDS011;20984;43.508;1.504;2023-05-01T00:24:22;12.38;;;8.25;;
34765;SDS011;20984;43.508;1.504;2023-05-01T00:26:48;12.45;;;8.35;;
34765;SDS011;20984;43.508;1.504;2023-05-01T00:29:13;12.18;;;9.25;;
34765;SDS011;20984;43.508;1.504;2023-05-01T00:31:39;11.00;;;8.52;;
34765;SDS011;20984;43.508;1.504;2023-05-01T00:34:09;16.40;;;10.00;;
34765;SDS011;20984;43.508;1.504;2023-05-01T00:36:35;23.48;;;10.77;;
34765;SDS011;20984;43.508;1.504;2023-05-01T00:39:01;20.10;;;10.80;;
34765;SDS011;20984;43.508;1.504;2023-05-01T00:41:27;16.23;;;11.77;;
34765;SDS011;20984;43.508;1.504;2023-05-01T00:43:53;16.23;;;11.60;;
34765;SDS011;20984;43.508;1.504;2023-05-01T00:46:18;18.42;;;11.82;;
34765;SDS011;20984;43.508;1.504;2023-05-01T00:48:45;15.23;;;11.63;;
34765;SDS011;20984;43.508;1.504;2023-05-01T00:51:10;19.50;;;12.30;;
34765;SDS011;20984;43.508;1.504;2023-05-01T00:53:37;21.55;;;12.75;;
34765;SDS011;20984;43.508;1.504;2023-05-01T00:56:05;17.13;;;11.50;;
34765;SDS011;20984;43.508;1.504;2023-05-01T00:58:32;18.67;;;12.30;;
34765;SDS011;20984;43.508;1.504;2023-05-01T01:00:58;18.40;;;12.07;;
34765;SDS011;20984;43.508;1.504;2023-05-01T01:03:25;15.02;;;11.82;;
34765;SDS011;20984;43.508;1.504;2023-05-01T01:06:38;16.45;;;12.45;;
34765;SDS011;20984;43.508;1.504;2023-05-01T01:09:03;13.35;;;11.85;;
34765;SDS011;20984;43.508;1.504;2023-05-01T01:14:31;14.40;;;11.43;;
34765;SDS011;20984;43.508;1.504;2023-05-01T01:22:45;22.42;;;12.88;;
34765;SDS011;20984;43.508;1.504;2023-05-01T01:28:20;18.17;;;13.75;;
34765;SDS011;20984;43.508;1.504;2023-05-01T01:33:53;17.98;;;12.48;;
34765;SDS011;20984;43.508;1.504;2023-05-01T01:42:00;16.50;;;11.60;;
34765;SDS011;20984;43.508;1.504;2023-05-01T01:44:36;22.85;;;10.27;;
34765;SDS011;20984;43.508;1.504;2023-05-01T01:47:14;15.77;;;10.63;;
34765;SDS011;20984;43.508;1.504;2023-05-01T01:49:43;18.38;;;10.25;;
34765;SDS011;20984;43.508;1.504;2023-05-01T01:52:12;16.33;;;11.55;;
34765;SDS011;20984;43.508;1.504;2023-05-01T01:54:41;16.23;;;9.80;;
34765;SDS011;20984;43.508;1.504;2023-05-01T01:57:13;13.68;;;10.30;;
34765;SDS011;20984;43.508;1.504;2023-05-01T01:59:42;11.18;;;9.82;;
34765;SDS011;20984;43.508;1.504;2023-05-01T02:02:10;13.88;;;10.52;;
34765;SDS011;20984;43.508;1.504;2023-05-01T02:04:36;15.05;;;9.13;;
34765;SDS011;20984;43.508;1.504;2023-05-01T02:07:03;15.18;;;9.48;;
34765;SDS011;20984;43.508;1.504;2023-05-01T02:09:30;17.08;;;8.82;;
34765;SDS011;20984;43.508;1.504;2023-05-01T02:11:58;9.23;;;7.15;;
34765;SDS011;20984;43.508;1.504;2023-05-01T02:14:26;10.82;;;7.60;;
34765;SDS011;20984;43.508;1.504;2023-05-01T02:16:53;17.60;;;9.10;;
34765;SDS011;20984;43.508;1.504;2023-05-01T02:19:21;18.30;;;7.78;;
34765;SDS011;20984;43.508;1.504;2023-05-01T02:21:48;12.13;;;8.48;;
34765;SDS011;20984;43.508;1.504;2023-05-01T02:24:16;13.48;;;7.68;;
34765;SDS011;20984;43.508;1.504;2023-05-01T02:26:46;9.95;;;7.90;;
34765;SDS011;20984;43.508;1.504;2023-05-01T02:29:16;10.50;;;7.18;;
34765;SDS011;20984;43.508;1.504;2023-05-01T02:31:41;12.60;;;7.53;;
34765;SDS011;20984;43.508;1.504;2023-05-01T02:34:07;11.10;;;6.72;;
34765;SDS011;20984;43.508;1.504;2023-05-01T02:36:33;9.38;;;6.65;;
34765;SDS011;20984;43.508;1.504;2023-05-01T02:38:59;10.98;;;6.95;;
34765;SDS011;20984;43.508;1.504;2023-05-01T02:41:25;9.60;;;6.22;;
34765;SDS011;20984;43.508;1.504;2023-05-01T02:43:53;8.45;;;5.75;;
34765;SDS011;20984;43.508;1.504;2023-05-01T02:46:24;9.63;;;6.10;;
34765;SDS011;20984;43.508;1.504;2023-05-01T02:48:52;7.75;;;5.57;;
34765;SDS011;20984;43.508;1.504;2023-05-01T02:51:18;6.45;;;5.80;;
34765;SDS011;20984;43.508;1.504;2023-05-01T02:53:45;6.90;;;5.82;;
34765;SDS011;20984;43.508;1.504;2023-05-01T02:56:11;8.77;;;6.20;;
34765;SDS011;20984;43.508;1.504;2023-05-01T02:58:37;6.95;;;5.10;;
34765;SDS011;20984;43.508;1.504;2023-05-01T03:01:02;7.85;;;5.47;;
34765;SDS011;20984;43.508;1.504;2023-05-01T03:03:29;14.50;;;6.20;;
34765;SDS011;20984;43.508;1.504;2023-05-01T03:05:54;7.43;;;5.28;;
34765;SDS011;20984;43.508;1.504;2023-05-01T03:08:21;5.70;;;5.07;;
34765;SDS011;20984;43.508;1.504;2023-05-01T03:10:47;7.22;;;5.68;;
34765;SDS011;20984;43.508;1.504;2023-05-01T03:13:12;10.65;;;5.63;;
34765;SDS011;20984;43.508;1.504;2023-05-01T03:15:38;8.10;;;5.40;;
34765;SDS011;20984;43.508;1.504;2023-05-01T03:18:04;10.35;;;5.63;;
34765;SDS011;20984;43.508;1.504;2023-05-01T03:20:30;7.55;;;5.45;;
34765;SDS011;20984;43.508;1.504;2023-05-01T03:22:56;7.57;;;5.45;;
34765;SDS011;20984;43.508;1.504;2023-05-01T03:25:23;6.88;;;4.30;;
34765;SDS011;20984;43.508;1.504;2023-05-01T03:27:49;7.20;;;5.32;;
34765;SDS011;20984;43.508;1.504;2023-05-01T03:30:15;9.93;;;5.22;;
34765;SDS011;20984;43.508;1.504;2023-05-01T03:32:41;12.18;;;5.65;;
34765;SDS011;20984;43.508;1.504;2023-05-01T03:35:07;9.48;;;5.32;;
34765;SDS011;20984;43.508;1.504;2023-05-01T03:37:33;5.70;;;5.05;;
34765;SDS011;20984;43.508;1.504;2023-05-01T03:39:59;5.35;;;4.85;;
34765;SDS011;20984;43.508;1.504;2023-05-01T03:42:25;7.65;;;5.13;;
34765;SDS011;20984;43.508;1.504;2023-05-01T03:44:50;6.18;;;4.75;;
34765;SDS011;20984;43.508;1.504;2023-05-01T03:47:16;8.57;;;4.97;;
34765;SDS011;20984;43.508;1.504;2023-05-01T03:49:43;7.75;;;4.93;;
34765;SDS011;20984;43.508;1.504;2023-05-01T03:52:09;6.30;;;4.70;;
34765;SDS011;20984;43.508;1.504;2023-05-01T03:54:36;5.88;;;4.70;;
34765;SDS011;20984;43.508;1.504;2023-05-01T03:57:02;7.50;;;5.15;;
34765;SDS011;20984;43.508;1.504;2023-05-01T03:59:28;5.82;;;5.07;;
34765;SDS011;20984;43.508;1.504;2023-05-01T04:01:54;5.85;;;4.35;;
34765;SDS011;20984;43.508;1.504;2023-05-01T04:04:20;12.55;;;4.47;;
34765;SDS011;20984;43.508;1.504;2023-05-01T04:06:45;5.63;;;4.47;;
34765;SDS011;20984;43.508;1.504;2023-05-01T04:09:13;9.15;;;4.93;;
34765;SDS011;20984;43.508;1.504;2023-05-01T04:11:39;6.80;;;4.35;;
34765;SDS011;20984;43.508;1.504;2023-05-01T04:14:05;7.50;;;4.53;;
34765;SDS011;20984;43.508;1.504;2023-05-01T04:16:31;6.57;;;4.55;;
34765;SDS011;20984;43.508;1.504;2023-05-01T04:18:57;6.70;;;4.88;;
34765;SDS011;20984;43.508;1.504;2023-05-01T04:21:22;8.85;;;4.53;;
34765;SDS011;20984;43.508;1.504;2023-05-01T04:23:48;6.25;;;4.30;;
34765;SDS011;20984;43.508;1.504;2023-05-01T04:26:14;5.30;;;4.03;;
34765;SDS011;20984;43.508;1.504;2023-05-01T04:28:40;4.80;;;4.30;;
34765;SDS011;20984;43.508;1.504;2023-05-01T04:31:06;8.60;;;4.30;;
34765;SDS011;20984;43.508;1.504;2023-05-01T04:33:31;6.63;;;4.75;;
34765;SDS011;20984;43.508;1.504;2023-05-01T04:35:57;5.35;;;3.58;;
34765;SDS011;20984;43.508;1.504;2023-05-01T04:38:23;9.90;;;4.65;;
34765;SDS011;20984;43.508;1.504;2023-05-01T04:40:48;7.88;;;3.95;;
34765;SDS011;20984;43.508;1.504;2023-05-01T04:43:14;5.15;;;3.50;;
34765;SDS011;20984;43.508;1.504;2023-05-01T04:45:40;6.55;;;3.80;;
34765;SDS011;20984;43.508;1.504;2023-05-01T04:48:05;6.75;;;4.28;;
34765;SDS011;20984;43.508;1.504;2023-05-01T04:50:31;4.72;;;3.78;;
34765;SDS011;20984;43.508;1.504;2023-05-01T04:52:57;7.28;;;4.68;;
34765;SDS011;20984;43.508;1.504;2023-05-01T04:55:23;8.50;;;4.60;;
34765;SDS011;20984;43.508;1.504;2023-05-01T04:57:49;6.53;;;4.00;;
34765;SDS011;20984;43.508;1.504;2023-05-01T05:00:14;4.18;;;3.78;;
34765;SDS011;20984;43.508;1.504;2023-05-01T05:02:43;6.38;;;3.60;;
34765;SDS011;20984;43.508;1.504;2023-05-01T05:05:09;6.38;;;3.60;;
34765;SDS011;20984;43.508;1.504;2023-05-01T05:07:35;4.05;;;3.65;;
34765;SDS011;20984;43.508;1.504;2023-05-01T05:10:01;5.10;;;3.42;;
34765;SDS011;20984;43.508;1.504;2023-05-01T05:12:26;5.68;;;3.75;;
34765;SDS011;20984;43.508;1.504;2023-05-01T05:14:52;6.32;;;3.85;;
34765;SDS011;20984;43.508;1.504;2023-05-01T05:17:18;5.72;;;3.03;;
34765;SDS011;20984;43.508;1.504;2023-05-01T05:19:43;4.07;;;3.40;;
34765;SDS011;20984;43.508;1.504;2023-05-01T05:22:09;4.80;;;2.90;;
34765;SDS011;20984;43.508;1.504;2023-05-01T05:24:36;5.95;;;3.33;;
34765;SDS011;20984;43.508;1.504;2023-05-01T05:27:02;6.20;;;3.55;;
34765;SDS011;20984;43.508;1.504;2023-05-01T05:29:30;4.10;;;2.60;;
34765;SDS011;20984;43.508;1.504;2023-05-01T05:31:56;6.82;;;2.72;;
34765;SDS011;20984;43.508;1.504;2023-05-01T05:34:23;4.72;;;2.40;;
34765;SDS011;20984;43.508;1.504;2023-05-01T05:36:49;4.30;;;2.45;;
34765;SDS011;20984;43.508;1.504;2023-05-01T05:39:15;2.40;;;2.17;;
34765;SDS011;20984;43.508;1.504;2023-05-01T05:41:40;6.15;;;2.40;;
34765;SDS011;20984;43.508;1.504;2023-05-01T05:44:06;3.17;;;1.90;;
34765;SDS011;20984;43.508;1.504;2023-05-01T05:46:31;3.13;;;2.55;;
34765;SDS011;20984;43.508;1.504;2023-05-01T05:48:57;8.48;;;2.55;;
34765;SDS011;20984;43.508;1.504;2023-05-01T05:51:23;3.15;;;2.25;;
34765;SDS011;20984;43.508;1.504;2023-05-01T05:53:48;2.22;;;1.98;;
34765;SDS011;20984;43.508;1.504;2023-05-01T05:56:14;6.38;;;2.05;;
34765;SDS011;20984;43.508;1.504;2023-05-01T05:58:40;2.90;;;2.05;;
34765;SDS011;20984;43.508;1.504;2023-05-01T06:01:05;3.88;;;2.25;;
34765;SDS011;20984;43.508;1.504;2023-05-01T06:03:33;4.35;;;2.28;;
34765;SDS011;20984;43.508;1.504;2023-05-01T06:06:00;4.57;;;2.00;;
34765;SDS011;20984;43.508;1.504;2023-05-01T06:08:26;3.28;;;1.83;;
34765;SDS011;20984;43.508;1.504;2023-05-01T06:10:51;2.15;;;1.95;;
34765;SDS011;20984;43.508;1.504;2023-05-01T06:13:17;5.07;;;2.03;;
34765;SDS011;20984;43.508;1.504;2023-05-01T06:15:43;2.20;;;2.00;;
34765;SDS011;20984;43.508;1.504;2023-05-01T06:18:09;2.00;;;1.80;;
34765;SDS011;20984;43.508;1.504;2023-05-01T06:20:35;2.30;;;2.10;;
34765;SDS011;20984;43.508;1.504;2023-05-01T06:23:01;5.00;;;2.38;;
34765;SDS011;20984;43.508;1.504;2023-05-01T06:25:26;3.08;;;2.10;;
34765;SDS011;20984;43.508;1.504;2023-05-01T06:27:52;2.25;;;1.80;;
34765;SDS011;20984;43.508;1.504;2023-05-01T06:30:18;2.28;;;2.08;;
34765;SDS011;20984;43.508;1.504;2023-05-01T06:32:44;4.53;;;1.80;;
34765;SDS011;20984;43.508;1.504;2023-05-01T06:35:10;2.00;;;1.80;;
34765;SDS011;20984;43.508;1.504;2023-05-01T06:37:37;5.65;;;1.90;;
34765;SDS011;20984;43.508;1.504;2023-05-01T06:40:03;2.80;;;1.80;;
34765;SDS011;20984;43.508;1.504;2023-05-01T06:42:30;2.67;;;1.60;;
34765;SDS011;20984;43.508;1.504;2023-05-01T06:44:56;3.97;;;1.77;;
34765;SDS011;20984;43.508;1.504;2023-05-01T06:47:21;3.25;;;1.73;;
34765;SDS011;20984;43.508;1.504;2023-05-01T06:49:47;4.15;;;1.80;;
34765;SDS011;20984;43.508;1.504;2023-05-01T06:52:13;4.25;;;1.70;;
34765;SDS011;20984;43.508;1.504;2023-05-01T06:54:38;1.80;;;1.70;;
34765;SDS011;20984;43.508;1.504;2023-05-01T06:57:04;1.77;;;1.65;;
34765;SDS011;20984;43.508;1.504;2023-05-01T06:59:29;3.95;;;2.00;;
34765;SDS011;20984;43.508;1.504;2023-05-01T07:01:55;5.43;;;1.85;;
34765;SDS011;20984;43.508;1.504;2023-05-01T07:04:21;2.08;;;1.88;;
34765;SDS011;20984;43.508;1.504;2023-05-01T07:06:47;2.25;;;1.60;;
34765;SDS011;20984;43.508;1.504;2023-05-01T07:09:13;2.65;;;2.10;;
34765;SDS011;20984;43.508;1.504;2023-05-01T07:11:39;3.92;;;1.80;;
34765;SDS011;20984;43.508;1.504;2023-05-01T07:14:06;2.22;;;2.03;;
34765;SDS011;20984;43.508;1.504;2023-05-01T07:16:32;2.80;;;1.95;;
34765;SDS011;20984;43.508;1.504;2023-05-01T07:18:58;2.55;;;1.95;;
34765;SDS011;20984;43.508;1.504;2023-05-01T07:21:24;2.80;;;2.00;;
34765;SDS011;20984;43.508;1.504;2023-05-01T07:23:49;3.60;;;3.00;;
34765;SDS011;20984;43.508;1.504;2023-05-01T07:26:15;2.83;;;2.15;;
34765;SDS011;20984;43.508;1.504;2023-05-01T07:28:41;3.05;;;2.05;;
34765;SDS011;20984;43.508;1.504;2023-05-01T07:31:10;2.20;;;1.80;;
34765;SDS011;20984;43.508;1.504;2023-05-01T07:33:36;3.28;;;1.80;;
34765;SDS011;20984;43.508;1.504;2023-05-01T07:36:02;5.38;;;2.15;;
34765;SDS011;20984;43.508;1.504;2023-05-01T07:38:28;3.05;;;1.92;;
34765;SDS011;20984;43.508;1.504;2023-05-01T07:40:54;5.10;;;2.13;;
34765;SDS011;20984;43.508;1.504;2023-05-01T07:43:21;4.07;;;1.70;;
34765;SDS011;20984;43.508;1.504;2023-05-01T07:45:59;2.72;;;1.70;;
34765;SDS011;20984;43.508;1.504;2023-05-01T07:48:26;3.42;;;2.38;;
34765;SDS011;20984;43.508;1.504;2023-05-01T07:50:52;2.50;;;2.00;;
34765;SDS011;20984;43.508;1.504;2023-05-01T07:53:19;2.45;;;1.67;;
34765;SDS011;20984;43.508;1.504;2023-05-01T07:55:46;4.63;;;1.90;;
34765;SDS011;20984;43.508;1.504;2023-05-01T07:58:12;1.70;;;1.40;;
34765;SDS011;20984;43.508;1.504;2023-05-01T08:00:38;2.65;;;1.33;;
34765;SDS011;20984;43.508;1.504;2023-05-01T08:03:04;3.50;;;1.80;;
34765;SDS011;20984;43.508;1.504;2023-05-01T08:05:30;1.50;;;1.40;;
34765;SDS011;20984;43.508;1.504;2023-05-01T08:07:56;5.05;;;1.67;;
34765;SDS011;20984;43.508;1.504;2023-05-01T08:10:22;3.08;;;1.80;;
34765;SDS011;20984;43.508;1.504;2023-05-01T08:12:47;2.28;;;1.30;;
34765;SDS011;20984;43.508;1.504;2023-05-01T08:15:14;3.80;;;1.38;;
34765;SDS011;20984;43.508;1.504;2023-05-01T08:17:39;4.70;;;1.67;;
34765;SDS011;20984;43.508;1.504;2023-05-01T08:20:05;2.50;;;1.50;;
34765;SDS011;20984;43.508;1.504;2023-05-01T08:22:31;3.42;;;1.40;;
34765;SDS011;20984;43.508;1.504;2023-05-01T08:24:57;5.38;;;2.17;;
34765;SDS011;20984;43.508;1.504;2023-05-01T08:27:23;1.88;;;1.48;;
34765;SDS011;20984;43.508;1.504;2023-05-01T08:29:48;1.50;;;1.40;;
34765;SDS011;20984;43.508;1.504;2023-05-01T08:32:16;2.15;;;1.38;;
34765;SDS011;20984;43.508;1.504;2023-05-01T08:34:42;1.98;;;1.50;;
34765;SDS011;20984;43.508;1.504;2023-05-01T08:37:08;1.50;;;1.38;;
34765;SDS011;20984;43.508;1.504;2023-05-01T08:39:33;1.55;;;1.45;;
34765;SDS011;20984;43.508;1.504;2023-05-01T08:41:59;6.22;;;1.70;;
34765;SDS011;20984;43.508;1.504;2023-05-01T08:44:27;2.50;;;1.50;;
34765;SDS011;20984;43.508;1.504;2023-05-01T08:49:42;6.82;;;1.50;;
34765;SDS011;20984;43.508;1.504;2023-05-01T08:52:09;1.67;;;1.57;;
34765;SDS011;20984;43.508;1.504;2023-05-01T08:54:45;3.75;;;1.77;;
34765;SDS011;20984;43.508;1.504;2023-05-01T08:57:12;4.15;;;1.70;;
34765;SDS011;20984;43.508;1.504;2023-05-01T08:59:39;2.20;;;1.60;;
34765;SDS011;20984;43.508;1.504;2023-05-01T09:02:06;1.70;;;1.60;;
34765;SDS011;20984;43.508;1.504;2023-05-01T09:04:34;2.05;;;1.45;;
34765;SDS011;20984;43.508;1.504;2023-05-01T09:07:02;2.42;;;1.83;;
34765;SDS011;20984;43.508;1.504;2023-05-01T09:09:29;2.67;;;1.55;;
34765;SDS011;20984;43.508;1.504;2023-05-01T09:11:59;1.73;;;1.60;;
34765;SDS011;20984;43.508;1.504;2023-05-01T09:14:31;1.75;;;1.20;;
34765;SDS011;20984;43.508;1.504;2023-05-01T09:16:57;1.27;;;1.17;;
34765;SDS011;20984;43.508;1.504;2023-05-01T09:19:23;2.67;;;1.50;;
34765;SDS011;20984;43.508;1.504;2023-05-01T09:21:50;1.65;;;1.30;;
34765;SDS011;20984;43.508;1.504;2023-05-01T09:24:17;2.28;;;1.58;;
34765;SDS011;20984;43.508;1.504;2023-05-01T09:26:42;1.42;;;1.20;;
34765;SDS011;20984;43.508;1.504;2023-05-01T09:29:08;1.40;;;1.30;;
34765;SDS011;20984;43.508;1.504;2023-05-01T09:31:35;1.67;;;1.50;;
34765;SDS011;20984;43.508;1.504;2023-05-01T09:34:01;1.20;;;1.10;;
34765;SDS011;20984;43.508;1.504;2023-05-01T09:36:28;1.15;;;1.10;;
34765;SDS011;20984;43.508;1.504;2023-05-01T09:38:56;1.38;;;1.20;;
34765;SDS011;20984;43.508;1.504;2023-05-01T09:41:24;1.55;;;1.30;;
34765;SDS011;20984;43.508;1.504;2023-05-01T09:43:54;1.58;;;1.40;;
34765;SDS011;20984;43.508;1.504;2023-05-01T09:46:22;1.40;;;1.30;;
34765;SDS011;20984;43.508;1.504;2023-05-01T09:48:58;1.13;;;1.02;;
34765;SDS011;20984;43.508;1.504;2023-05-01T09:53:53;2.40;;;1.40;;
34765;SDS011;20984;43.508;1.504;2023-05-01T09:56:24;1.27;;;1.17;;
34765;SDS011;20984;43.508;1.504;2023-05-01T09:58:51;1.45;;;1.27;;
34765;SDS011;20984;43.508;1.504;2023-05-01T10:01:19;2.00;;;1.40;;
34765;SDS011;20984;43.508;1.504;2023-05-01T10:04:05;1.60;;;1.30;;
34765;SDS011;20984;43.508;1.504;2023-05-01T10:06:32;2.47;;;1.55;;
34765;SDS011;20984;43.508;1.504;2023-05-01T10:08:58;1.42;;;1.17;;
34765;SDS011;20984;43.508;1.504;2023-05-01T10:11:23;2.35;;;1.55;;
34765;SDS011;20984;43.508;1.504;2023-05-01T10:14:09;1.67;;;1.55;;
34765;SDS011;20984;43.508;1.504;2023-05-01T10:16:35;1.65;;;1.25;;
34765;SDS011;20984;43.508;1.504;2023-05-01T10:19:03;2.00;;;1.55;;
34765;SDS011;20984;43.508;1.504;2023-05-01T10:21:29;2.78;;;1.58;;
34765;SDS011;20984;43.508;1.504;2023-05-01T10:23:59;2.33;;;1.90;;
34765;SDS011;20984;43.508;1.504;2023-05-01T10:26:30;3.38;;;1.40;;
34765;SDS011;20984;43.508;1.504;2023-05-01T10:28:57;2.95;;;1.40;;
34765;SDS011;20984;43.508;1.504;2023-05-01T10:31:25;2.00;;;1.38;;
34765;SDS011;20984;43.508;1.504;2023-05-01T10:33:52;2.20;;;1.58;;
34765;SDS011;20984;43.508;1.504;2023-05-01T10:36:41;2.05;;;1.70;;
34765;SDS011;20984;43.508;1.504;2023-05-01T10:39:29;1.60;;;1.40;;
34765;SDS011;20984;43.508;1.504;2023-05-01T10:42:08;1.75;;;1.33;;
34765;SDS011;20984;43.508;1.504;2023-05-01T10:44:38;1.50;;;1.30;;
34765;SDS011;20984;43.508;1.504;2023-05-01T10:50:08;2.67;;;1.30;;
34765;SDS011;20984;43.508;1.504;2023-05-01T10:55:48;1.92;;;1.25;;
34765;SDS011;20984;43.508;1.504;2023-05-01T11:03:52;2.45;;;1.23;;
34765;SDS011;20984;43.508;1.504;2023-05-01T11:06:22;2.37;;;1.80;;
34765;SDS011;20984;43.508;1.504;2023-05-01T11:08:48;2.03;;;1.40;;
34765;SDS011;20984;43.508;1.504;2023-05-01T11:14:01;1.50;;;1.40;;
34765;SDS011;20984;43.508;1.504;2023-05-01T11:21:32;2.83;;;1.30;;
34765;SDS011;20984;43.508;1.504;2023-05-01T11:23:59;1.17;;;1.03;;
34765;SDS011;20984;43.508;1.504;2023-05-01T11:26:26;1.55;;;1.30;;
34765;SDS011;20984;43.508;1.504;2023-05-01T11:28:53;1.30;;;1.20;;
34765;SDS011;20984;43.508;1.504;2023-05-01T11:31:21;2.05;;;1.33;;
34765;SDS011;20984;43.508;1.504;2023-05-01T11:33:47;1.63;;;1.20;;
34765;SDS011;20984;43.508;1.504;2023-05-01T11:36:13;1.35;;;1.20;;
34765;SDS011;20984;43.508;1.504;2023-05-01T11:38:54;2.40;;;1.10;;
34765;SDS011;20984;43.508;1.504;2023-05-01T11:41:23;4.55;;;1.20;;
34765;SDS011;20984;43.508;1.504;2023-05-01T11:43:49;5.10;;;1.55;;
34765;SDS011;20984;43.508;1.504;2023-05-01T11:46:25;2.58;;;1.52;;
34765;SDS011;20984;43.508;1.504;2023-05-01T11:48:54;1.63;;;1.52;;
34765;SDS011;20984;43.508;1.504;2023-05-01T11:51:21;1.50;;;1.25;;
34765;SDS011;20984;43.508;1.504;2023-05-01T11:56:29;2.13;;;1.50;;
34765;SDS011;20984;43.508;1.504;2023-05-01T11:58:56;2.65;;;1.63;;
34765;SDS011;20984;43.508;1.504;2023-05-01T12:01:33;1.80;;;1.50;;
34765;SDS011;20984;43.508;1.504;2023-05-01T12:04:00;3.60;;;1.50;;
34765;SDS011;20984;43.508;1.504;2023-05-01T12:06:39;1.00;;;1.00;;
34765;SDS011;20984;43.508;1.504;2023-05-01T12:09:14;2.17;;;1.67;;
34765;SDS011;20984;43.508;1.504;2023-05-01T12:11:48;3.10;;;1.77;;
34765;SDS011;20984;43.508;1.504;2023-05-01T12:14:16;1.70;;;1.40;;
34765;SDS011;20984;43.508;1.504;2023-05-01T12:16:43;2.55;;;1.42;;
34765;SDS011;20984;43.508;1.504;2023-05-01T12:19:11;2.20;;;1.30;;
34765;SDS011;20984;43.508;1.504;2023-05-01T12:21:38;1.63;;;1.10;;
34765;SDS011;20984;43.508;1.504;2023-05-01T12:24:15;3.08;;;1.45;;
34765;SDS011;20984;43.508;1.504;2023-05-01T12:26:42;2.00;;;1.30;;
34765;SDS011;20984;43.508;1.504;2023-05-01T12:29:09;2.67;;;1.35;;
34765;SDS011;20984;43.508;1.504;2023-05-01T12:31:35;2.75;;;1.30;;
34765;SDS011;20984;43.508;1.504;2023-05-01T12:34:03;2.72;;;1.20;;
34765;SDS011;20984;43.508;1.504;2023-05-01T12:36:31;5.78;;;1.23;;
34765;SDS011;20984;43.508;1.504;2023-05-01T12:39:03;2.30;;;1.50;;
34765;SDS011;20984;43.508;1.504;2023-05-01T12:41:38;1.55;;;1.17;;
34765;SDS011;20984;43.508;1.504;2023-05-01T12:49:24;2.10;;;1.25;;
34765;SDS011;20984;43.508;1.504;2023-05-01T12:51:53;1.63;;;1.20;;
34765;SDS011;20984;43.508;1.504;2023-05-01T12:54:28;1.48;;;1.30;;
34765;SDS011;20984;43.508;1.504;2023-05-01T12:57:08;1.35;;;1.10;;
34765;SDS011;20984;43.508;1.504;2023-05-01T12:59:36;2.30;;;1.40;;
34765;SDS011;20984;43.508;1.504;2023-05-01T13:02:03;3.47;;;1.52;;
34765;SDS011;20984;43.508;1.504;2023-05-01T13:04:29;1.73;;;1.23;;
34765;SDS011;20984;43.508;1.504;2023-05-01T13:06:55;2.88;;;1.38;;
34765;SDS011;20984;43.508;1.504;2023-05-01T13:09:22;1.38;;;1.15;;
34765;SDS011;20984;43.508;1.504;2023-05-01T13:11:58;3.75;;;1.15;;
34765;SDS011;20984;43.508;1.504;2023-05-01T13:14:24;1.75;;;1.20;;
34765;SDS011;20984;43.508;1.504;2023-05-01T13:16:50;3.30;;;1.10;;
34765;SDS011;20984;43.508;1.504;2023-05-01T13:19:24;1.23;;;1.08;;
34765;SDS011;20984;43.508;1.504;2023-05-01T13:21:54;1.35;;;1.00;;
34765;SDS011;20984;43.508;1.504;2023-05-01T13:24:21;1.40;;;1.00;;
34765;SDS011;20984;43.508;1.504;2023-05-01T13:26:55;2.35;;;1.20;;
34765;SDS011;20984;43.508;1.504;2023-05-01T13:29:25;1.00;;;0.90;;
34765;SDS011;20984;43.508;1.504;2023-05-01T13:31:51;1.15;;;0.98;;
34765;SDS011;20984;43.508;1.504;2023-05-01T13:34:19;1.27;;;1.00;;
34765;SDS011;20984;43.508;1.504;2023-05-01T13:36:49;1.15;;;0.90;;
34765;SDS011;20984;43.508;1.504;2023-05-01T13:39:18;1.40;;;1.00;;
34765;SDS011;20984;43.508;1.504;2023-05-01T13:41:47;2.17;;;1.23;;
34765;SDS011;20984;43.508;1.504;2023-05-01T13:44:14;2.13;;;1.40;;
34765;SDS011;20984;43.508;1.504;2023-05-01T13:46:41;2.03;;;1.40;;
34765;SDS011;20984;43.508;1.504;2023-05-01T13:49:07;1.55;;;1.00;;
34765;SDS011;20984;43.508;1.504;2023-05-01T13:51:33;3.50;;;1.05;;
34765;SDS011;20984;43.508;1.504;2023-05-01T13:54:07;13.13;;;1.70;;
34765;SDS011;20984;43.508;1.504;2023-05-01T13:56:37;1.92;;;1.10;;
34765;SDS011;20984;43.508;1.504;2023-05-01T13:59:04;1.83;;;1.00;;
34765;SDS011;20984;43.508;1.504;2023-05-01T14:01:33;2.42;;;1.40;;
34765;SDS011;20984;43.508;1.504;2023-05-01T14:04:16;0.80;;;0.80;;
34765;SDS011;20984;43.508;1.504;2023-05-01T14:06:42;1.42;;;1.10;;
34765;SDS011;20984;43.508;1.504;2023-05-01T14:09:09;2.20;;;1.10;;
34765;SDS011;20984;43.508;1.504;2023-05-01T14:11:42;1.85;;;1.30;;
34765;SDS011;20984;43.508;1.504;2023-05-01T14:14:10;3.38;;;1.30;;
34765;SDS011;20984;43.508;1.504;2023-05-01T14:16:39;3.63;;;0.93;;
34765;SDS011;20984;43.508;1.504;2023-05-01T14:19:06;1.00;;;0.85;;
34765;SDS011;20984;43.508;1.504;2023-05-01T14:21:33;1.25;;;1.00;;
34765;SDS011;20984;43.508;1.504;2023-05-01T14:24:04;1.17;;;1.08;;
34765;SDS011;20984;43.508;1.504;2023-05-01T14:26:32;1.40;;;1.10;;
34765;SDS011;20984;43.508;1.504;2023-05-01T14:28:58;1.90;;;1.15;;
34765;SDS011;20984;43.508;1.504;2023-05-01T14:31:27;2.28;;;1.00;;
34765;SDS011;20984;43.508;1.504;2023-05-01T14:36:26;3.03;;;1.27;;
34765;SDS011;20984;43.508;1.504;2023-05-01T14:38:55;1.60;;;0.90;;
34765;SDS011;20984;43.508;1.504;2023-05-01T14:41:22;1.10;;;1.00;;
34765;SDS011;20984;43.508;1.504;2023-05-01T14:43:49;1.85;;;1.10;;
34765;SDS011;20984;43.508;1.504;2023-05-01T14:46:21;1.48;;;0.90;;
34765;SDS011;20984;43.508;1.504;2023-05-01T14:48:54;1.73;;;1.02;;
34765;SDS011;20984;43.508;1.504;2023-05-01T14:51:20;0.93;;;0.80;;
34765;SDS011;20984;43.508;1.504;2023-05-01T14:53:46;4.70;;;1.13;;
34765;SDS011;20984;43.508;1.504;2023-05-01T14:56:11;1.15;;;0.80;;
34765;SDS011;20984;43.508;1.504;2023-05-01T14:58:37;3.10;;;0.90;;
34765;SDS011;20984;43.508;1.504;2023-05-01T15:01:03;1.23;;;0.80;;
34765;SDS011;20984;43.508;1.504;2023-05-01T15:03:29;1.92;;;0.55;;
34765;SDS011;20984;43.508;1.504;2023-05-01T15:05:55;2.00;;;0.70;;
34765;SDS011;20984;43.508;1.504;2023-05-01T15:08:21;1.27;;;0.50;;
34765;SDS011;20984;43.508;1.504;2023-05-01T15:10:48;1.27;;;0.60;;
34765;SDS011;20984;43.508;1.504;2023-05-01T15:13:16;1.00;;;0.70;;
34765;SDS011;20984;43.508;1.504;2023-05-01T15:15:41;1.10;;;0.60;;
34765;SDS011;20984;43.508;1.504;2023-05-01T15:18:07;3.05;;;1.23;;
34765;SDS011;20984;43.508;1.504;2023-05-01T15:20:33;0.50;;;0.40;;
34765;SDS011;20984;43.508;1.504;2023-05-01T15:22:58;4.53;;;0.93;;
34765;SDS011;20984;43.508;1.504;2023-05-01T15:25:24;1.35;;;0.50;;
34765;SDS011;20984;43.508;1.504;2023-05-01T15:27:49;1.67;;;0.52;;
34765;SDS011;20984;43.508;1.504;2023-05-01T15:30:15;3.33;;;0.60;;
34765;SDS011;20984;43.508;1.504;2023-05-01T15:32:41;1.30;;;0.40;;
34765;SDS011;20984;43.508;1.504;2023-05-01T15:35:07;1.00;;;0.65;;
34765;SDS011;20984;43.508;1.504;2023-05-01T15:37:33;0.80;;;0.50;;
34765;SDS011;20984;43.508;1.504;2023-05-01T15:39:59;0.40;;;0.30;;
34765;SDS011;20984;43.508;1.504;2023-05-01T15:42:25;0.40;;;0.40;;